createdAt,value
2022-10-12T02:52:19.234Z,2.37
2022-10-12T02:55:08.360Z,2.07
2022-10-12T02:57:57.947Z,2.13
2022-10-12T03:00:46.774Z,2.17
2022-10-12T03:03:34.860Z,2.03
2022-10-12T03:06:23.886Z,2.00
2022-10-12T03:09:12.079Z,2.63
2022-10-12T03:12:00.100Z,2.43
2022-10-12T03:14:49.766Z,2.40
2022-10-12T03:17:37.990Z,1.90
2022-10-12T03:20:26.610Z,2.07
2022-10-12T03:23:14.705Z,2.37
2022-10-12T03:26:02.822Z,2.57
2022-10-12T03:28:51.082Z,2.20
2022-10-12T03:31:40.560Z,2.03
2022-10-12T03:34:28.611Z,2.20
2022-10-12T03:37:16.607Z,2.07
2022-10-12T03:40:05.088Z,2.20
2022-10-12T03:42:53.110Z,2.43
2022-10-12T03:45:41.262Z,2.00
2022-10-12T03:48:30.655Z,2.20
2022-10-12T03:51:18.721Z,2.10
2022-10-12T03:54:06.996Z,1.73
2022-10-12T03:56:55.041Z,2.37
2022-10-12T03:59:43.276Z,2.10
2022-10-12T04:02:31.334Z,2.10
2022-10-12T04:05:20.773Z,2.40
2022-10-12T04:08:09.317Z,2.40
2022-10-12T04:10:57.365Z,2.73
2022-10-12T04:13:45.411Z,2.20
2022-10-12T04:16:33.440Z,2.03
2022-10-12T04:19:21.683Z,2.10
2022-10-12T04:22:11.114Z,2.20
2022-10-12T04:24:59.216Z,2.20
2022-10-12T04:27:47.265Z,2.10
2022-10-12T04:30:35.337Z,2.40
2022-10-12T04:33:23.471Z,2.07
2022-10-12T04:36:12.029Z,2.00
2022-10-12T04:39:01.938Z,2.50
2022-10-12T04:41:50.291Z,2.60
2022-10-12T04:44:38.320Z,2.53
2022-10-12T04:47:26.554Z,2.40
2022-10-12T04:50:14.998Z,2.37
2022-10-12T04:53:03.162Z,2.80
2022-10-12T04:55:52.565Z,2.50
2022-10-12T04:58:40.617Z,2.43
2022-10-12T05:01:28.761Z,2.50
2022-10-12T05:04:16.891Z,2.23
2022-10-12T05:07:04.990Z,3.13
2022-10-12T05:09:53.654Z,2.70
2022-10-12T05:12:43.707Z,2.70
2022-10-12T05:15:31.796Z,3.00
2022-10-12T05:18:19.814Z,4.17
2022-10-12T05:21:07.925Z,4.17
2022-10-12T05:23:56.259Z,3.37
2022-10-12T05:26:44.322Z,3.43
2022-10-12T05:29:33.717Z,3.07
2022-10-12T05:32:22.082Z,3.30
2022-10-12T05:35:11.371Z,2.53
2022-10-12T05:37:59.392Z,2.90
2022-10-12T05:40:47.447Z,2.90
2022-10-12T05:43:35.544Z,2.63
2022-10-12T05:46:25.030Z,2.93
2022-10-12T05:49:13.081Z,2.43
2022-10-12T05:52:01.118Z,2.50
2022-10-12T05:54:49.605Z,2.43
2022-10-12T05:57:37.930Z,3.00
2022-10-12T06:00:26.080Z,2.90
2022-10-12T06:03:18.450Z,2.17
2022-10-12T06:06:08.332Z,2.33
2022-10-12T06:08:56.317Z,2.57
2022-10-12T06:11:44.358Z,2.57
2022-10-12T06:14:32.462Z,2.43
2022-10-12T06:17:20.496Z,2.47
2022-10-12T06:20:11.120Z,2.60
2022-10-12T06:22:59.245Z,2.70
2022-10-12T06:25:48.256Z,2.70
2022-10-12T06:28:36.320Z,2.67
2022-10-12T06:31:24.507Z,3.03
2022-10-12T06:34:12.520Z,3.10
2022-10-12T06:37:02.333Z,2.37
2022-10-12T06:39:50.525Z,2.73
2022-10-12T06:42:38.749Z,2.70
2022-10-12T06:45:27.033Z,2.90
2022-10-12T06:48:18.552Z,3.00
2022-10-12T06:51:07.573Z,2.97
2022-10-12T06:53:57.556Z,3.00
2022-10-12T06:56:45.691Z,3.20
2022-10-12T06:59:33.832Z,3.60
2022-10-12T07:02:21.879Z,2.93
2022-10-12T07:05:10.557Z,3.17
2022-10-12T07:07:58.904Z,3.30
2022-10-12T07:10:48.297Z,3.30
2022-10-12T07:13:37.091Z,4.30
2022-10-12T07:16:25.260Z,3.93
2022-10-12T07:19:13.327Z,3.90
2022-10-12T07:22:02.018Z,3.60
2022-10-12T07:24:50.434Z,3.40
2022-10-12T07:27:40.551Z,3.23
2022-10-12T07:30:28.876Z,3.17
2022-10-12T07:33:17.111Z,2.97
2022-10-12T07:36:15.631Z,3.80
2022-10-12T07:39:07.735Z,3.33
2022-10-12T07:41:56.256Z,4.00
2022-10-12T07:44:45.658Z,3.70
2022-10-12T07:47:33.758Z,3.83
2022-10-12T07:50:21.990Z,3.30
2022-10-12T07:53:10.146Z,3.43
2022-10-12T07:56:01.772Z,3.30
2022-10-12T07:58:51.207Z,3.80
2022-10-12T08:01:40.764Z,2.97
2022-10-12T08:04:28.810Z,3.53
2022-10-12T08:07:17.008Z,3.30
2022-10-12T08:10:05.663Z,2.90
2022-10-12T08:12:53.833Z,3.20
2022-10-12T08:15:41.944Z,3.00
2022-10-12T08:18:31.473Z,3.60
2022-10-12T08:21:19.996Z,2.60
2022-10-12T08:24:08.760Z,2.57
2022-10-12T08:27:01.180Z,2.57
2022-10-12T08:29:49.686Z,2.60
2022-10-12T08:32:37.861Z,2.37
2022-10-12T08:35:27.381Z,2.47
